sensor_id;sensor_type;location;lat;lon;timestamp;temperature;humidity
2621;DHT22;1320;48.128;11.592;2022-11-04T00:01:38;13.90;99.90
2621;DHT22;1320;48.128;11.592;2022-11-04T00:04:04;13.90;99.90
2621;DHT22;1320;48.128;11.592;2022-11-04T00:06:29;13.90;99.90
2621;DHT22;1320;48.128;11.592;2022-11-04T00:08:57;13.90;99.90
2621;DHT22;1320;48.128;11.592;2022-11-04T00:11:24;13.90;99.90
2621;DHT22;1320;48.128;11.592;2022-11-04T00:14:09;13.90;99.90
2621;DHT22;1320;48.128;11.592;2022-11-04T00:16:35;13.80;99.90
2621;DHT22;1320;48.128;11.592;2022-11-04T00:19:19;13.70;99.90
2621;DHT22;1320;48.128;11.592;2022-11-04T00:21:45;13.60;99.90
2621;DHT22;1320;48.128;11.592;2022-11-04T00:24:29;13.60;99.90
2621;DHT22;1320;48.128;11.592;2022-11-04T00:27:25;13.50;99.90
2621;DHT22;1320;48.128;11.592;2022-11-04T00:30:09;13.50;99.90
2621;DHT22;1320;48.128;11.592;2022-11-04T00:32:36;13.60;99.90
2621;DHT22;1320;48.128;11.592;2022-11-04T00:35:20;13.50;99.90
2621;DHT22;1320;48.128;11.592;2022-11-04T00:37:46;13.50;99.90
2621;DHT22;1320;48.128;11.592;2022-11-04T00:40:14;13.50;99.90
2621;DHT22;1320;48.128;11.592;2022-11-04T00:42:42;13.50;99.90
2621;DHT22;1320;48.128;11.592;2022-11-04T00:45:08;13.40;99.90
2621;DHT22;1320;48.128;11.592;2022-11-04T00:47:34;13.40;99.90
2621;DHT22;1320;48.128;11.592;2022-11-04T00:50:00;13.30;99.90
2621;DHT22;1320;48.128;11.592;2022-11-04T00:52:25;13.30;99.90
2621;DHT22;1320;48.128;11.592;2022-11-04T00:54:51;13.20;99.90
2621;DHT22;1320;48.128;11.592;2022-11-04T00:57:17;13.10;99.90
2621;DHT22;1320;48.128;11.592;2022-11-04T00:59:42;13.00;99.90
2621;DHT22;1320;48.128;11.592;2022-11-04T01:02:11;13.00;99.90
2621;DHT22;1320;48.128;11.592;2022-11-04T01:04:37;12.90;99.90
2621;DHT22;1320;48.128;11.592;2022-11-04T01:07:03;12.80;99.90
2621;DHT22;1320;48.128;11.592;2022-11-04T01:09:29;12.70;99.90
2621;DHT22;1320;48.128;11.592;2022-11-04T01:11:55;12.70;99.90
2621;DHT22;1320;48.128;11.592;2022-11-04T01:14:20;12.60;99.90
2621;DHT22;1320;48.128;11.592;2022-11-04T01:16:48;12.50;99.90
2621;DHT22;1320;48.128;11.592;2022-11-04T01:19:15;12.50;99.90
2621;DHT22;1320;48.128;11.592;2022-11-04T01:21:41;12.30;99.90
2621;DHT22;1320;48.128;11.592;2022-11-04T01:24:07;12.20;99.90
2621;DHT22;1320;48.128;11.592;2022-11-04T01:26:32;12.10;99.90
2621;DHT22;1320;48.128;11.592;2022-11-04T01:28:58;11.90;99.90
2621;DHT22;1320;48.128;11.592;2022-11-04T01:31:29;11.90;99.90
2621;DHT22;1320;48.128;11.592;2022-11-04T01:33:57;11.80;99.90
2621;DHT22;1320;48.128;11.592;2022-11-04T01:36:23;11.70;99.90
2621;DHT22;1320;48.128;11.592;2022-11-04T01:38:49;11.70;99.90
2621;DHT22;1320;48.128;11.592;2022-11-04T01:41:21;11.60;99.90
2621;DHT22;1320;48.128;11.592;2022-11-04T01:49:10;11.50;99.90
2621;DHT22;1320;48.128;11.592;2022-11-04T01:51:40;11.50;99.90
2621;DHT22;1320;48.128;11.592;2022-11-04T01:54:07;11.50;99.90
2621;DHT22;1320;48.128;11.592;2022-11-04T01:56:34;11.50;99.90
2621;DHT22;1320;48.128;11.592;2022-11-04T01:59:07;11.50;99.90
2621;DHT22;1320;48.128;11.592;2022-11-04T02:01:35;11.50;99.90
2621;DHT22;1320;48.128;11.592;2022-11-04T02:04:01;11.60;99.90
2621;DHT22;1320;48.128;11.592;2022-11-04T02:06:51;11.60;99.90
2621;DHT22;1320;48.128;11.592;2022-11-04T02:09:18;11.60;99.90
2621;DHT22;1320;48.128;11.592;2022-11-04T02:11:44;11.60;99.90
2621;DHT22;1320;48.128;11.592;2022-11-04T02:14:30;11.60;99.90
2621;DHT22;1320;48.128;11.592;2022-11-04T02:31:17;11.70;99.90
2621;DHT22;1320;48.128;11.592;2022-11-04T02:34:39;11.70;99.90
2621;DHT22;1320;48.128;11.592;2022-11-04T02:40:24;11.60;99.90
2621;DHT22;1320;48.128;11.592;2022-11-04T02:45:46;11.70;99.90
2621;DHT22;1320;48.128;11.592;2022-11-04T02:50:55;11.70;99.90
2621;DHT22;1320;48.128;11.592;2022-11-04T02:56:38;11.60;99.90
2621;DHT22;1320;48.128;11.592;2022-11-04T02:59:14;11.50;99.90
2621;DHT22;1320;48.128;11.592;2022-11-04T03:01:44;11.50;99.90
2621;DHT22;1320;48.128;11.592;2022-11-04T03:04:14;11.50;99.90
2621;DHT22;1320;48.128;11.592;2022-11-04T03:06:44;11.60;99.90
2621;DHT22;1320;48.128;11.592;2022-11-04T03:09:14;11.60;99.90
2621;DHT22;1320;48.128;11.592;2022-11-04T03:11:44;11.60;99.90
2621;DHT22;1320;48.128;11.592;2022-11-04T03:16:46;11.70;99.90
2621;DHT22;1320;48.128;11.592;2022-11-04T03:19:18;11.80;99.90
2621;DHT22;1320;48.128;11.592;2022-11-04T03:21:57;11.70;99.90
2621;DHT22;1320;48.128;11.592;2022-11-04T03:24:24;11.70;99.90
2621;DHT22;1320;48.128;11.592;2022-11-04T03:32:23;11.70;99.90
2621;DHT22;1320;48.128;11.592;2022-11-04T03:34:49;11.70;99.90
2621;DHT22;1320;48.128;11.592;2022-11-04T03:37:16;11.70;99.90
2621;DHT22;1320;48.128;11.592;2022-11-04T03:39:42;11.70;99.90
2621;DHT22;1320;48.128;11.592;2022-11-04T03:42:10;11.70;99.90
2621;DHT22;1320;48.128;11.592;2022-11-04T03:44:56;11.70;99.90
2621;DHT22;1320;48.128;11.592;2022-11-04T03:47:24;11.60;99.90
2621;DHT22;1320;48.128;11.592;2022-11-04T03:50:08;11.60;99.90
2621;DHT22;1320;48.128;11.592;2022-11-04T03:52:35;11.60;99.90
2621;DHT22;1320;48.128;11.592;2022-11-04T03:55:02;11.50;99.90
2621;DHT22;1320;48.128;11.592;2022-11-04T03:57:47;11.50;99.90
2621;DHT22;1320;48.128;11.592;2022-11-04T04:00:20;11.60;99.90
2621;DHT22;1320;48.128;11.592;2022-11-04T04:08:09;11.60;99.90
2621;DHT22;1320;48.128;11.592;2022-11-04T04:13:40;11.60;99.90
2621;DHT22;1320;48.128;11.592;2022-11-04T04:16:14;11.60;99.90
2621;DHT22;1320;48.128;11.592;2022-11-04T04:21:14;11.70;99.90
2621;DHT22;1320;48.128;11.592;2022-11-04T04:23:42;11.70;99.90
2621;DHT22;1320;48.128;11.592;2022-11-04T04:26:28;11.70;99.90
2621;DHT22;1320;48.128;11.592;2022-11-04T04:29:14;11.70;99.90
2621;DHT22;1320;48.128;11.592;2022-11-04T04:31:42;11.70;99.90
2621;DHT22;1320;48.128;11.592;2022-11-04T04:34:24;11.70;99.90
2621;DHT22;1320;48.128;11.592;2022-11-04T04:39:42;11.70;99.90
2621;DHT22;1320;48.128;11.592;2022-11-04T04:42:32;11.70;99.90
2621;DHT22;1320;48.128;11.592;2022-11-04T04:45:32;11.80;99.90
2621;DHT22;1320;48.128;11.592;2022-11-04T04:47:59;11.70;99.90
2621;DHT22;1320;48.128;11.592;2022-11-04T04:50:30;11.70;99.90
2621;DHT22;1320;48.128;11.592;2022-11-04T04:52:58;11.70;99.90
2621;DHT22;1320;48.128;11.592;2022-11-04T04:55:25;11.60;99.90
2621;DHT22;1320;48.128;11.592;2022-11-04T04:57:50;11.70;99.90
2621;DHT22;1320;48.128;11.592;2022-11-04T05:00:19;11.70;99.90
2621;DHT22;1320;48.128;11.592;2022-11-04T05:02:45;11.70;99.90
2621;DHT22;1320;48.128;11.592;2022-11-04T05:05:11;11.70;99.90
2621;DHT22;1320;48.128;11.592;2022-11-04T05:07:40;11.70;99.90
2621;DHT22;1320;48.128;11.592;2022-11-04T05:10:08;11.70;99.90
2621;DHT22;1320;48.128;11.592;2022-11-04T05:12:36;11.70;99.90
2621;DHT22;1320;48.128;11.592;2022-11-04T05:15:20;11.60;99.90
2621;DHT22;1320;48.128;11.592;2022-11-04T05:17:47;11.60;99.90
2621;DHT22;1320;48.128;11.592;2022-11-04T05:20:17;11.60;99.90
2621;DHT22;1320;48.128;11.592;2022-11-04T05:22:43;11.60;99.90
2621;DHT22;1320;48.128;11.592;2022-11-04T05:25:08;11.60;99.90
2621;DHT22;1320;48.128;11.592;2022-11-04T05:27:34;11.60;99.90
2621;DHT22;1320;48.128;11.592;2022-11-04T05:29:59;11.50;99.90
2621;DHT22;1320;48.128;11.592;2022-11-04T05:32:30;11.50;99.90
2621;DHT22;1320;48.128;11.592;2022-11-04T05:34:56;11.40;99.90
2621;DHT22;1320;48.128;11.592;2022-11-04T05:37:22;11.40;99.90
2621;DHT22;1320;48.128;11.592;2022-11-04T05:39:47;11.30;99.90
2621;DHT22;1320;48.128;11.592;2022-11-04T05:42:13;11.30;99.90
2621;DHT22;1320;48.128;11.592;2022-11-04T05:44:39;11.40;99.90
2621;DHT22;1320;48.128;11.592;2022-11-04T05:47:04;11.30;99.90
2621;DHT22;1320;48.128;11.592;2022-11-04T05:49:30;11.30;99.90
2621;DHT22;1320;48.128;11.592;2022-11-04T05:51:56;11.30;99.90
2621;DHT22;1320;48.128;11.592;2022-11-04T05:54:22;11.30;99.90
2621;DHT22;1320;48.128;11.592;2022-11-04T05:56:47;11.20;99.90
2621;DHT22;1320;48.128;11.592;2022-11-04T05:59:13;11.20;99.90
2621;DHT22;1320;48.128;11.592;2022-11-04T06:01:40;11.20;99.90
2621;DHT22;1320;48.128;11.592;2022-11-04T06:04:13;11.10;99.90
2621;DHT22;1320;48.128;11.592;2022-11-04T06:06:38;11.10;99.90
2621;DHT22;1320;48.128;11.592;2022-11-04T06:09:04;11.10;99.90
2621;DHT22;1320;48.128;11.592;2022-11-04T06:11:31;11.10;99.90
2621;DHT22;1320;48.128;11.592;2022-11-04T06:13:57;11.10;99.90
2621;DHT22;1320;48.128;11.592;2022-11-04T06:16:23;11.00;99.90
2621;DHT22;1320;48.128;11.592;2022-11-04T06:18:50;11.00;99.90
2621;DHT22;1320;48.128;11.592;2022-11-04T06:23:43;10.60;99.90
2621;DHT22;1320;48.128;11.592;2022-11-04T06:26:10;10.50;99.90
2621;DHT22;1320;48.128;11.592;2022-11-04T06:28:36;10.40;99.90
2621;DHT22;1320;48.128;11.592;2022-11-04T06:31:05;10.30;99.90
2621;DHT22;1320;48.128;11.592;2022-11-04T06:33:31;10.30;99.90
2621;DHT22;1320;48.128;11.592;2022-11-04T06:36:02;10.30;99.90
2621;DHT22;1320;48.128;11.592;2022-11-04T06:38:32;10.30;99.90
2621;DHT22;1320;48.128;11.592;2022-11-04T06:40:58;10.30;99.90
2621;DHT22;1320;48.128;11.592;2022-11-04T06:43:24;10.30;99.90
2621;DHT22;1320;48.128;11.592;2022-11-04T06:45:57;10.40;99.90
2621;DHT22;1320;48.128;11.592;2022-11-04T06:48:23;10.40;99.90
2621;DHT22;1320;48.128;11.592;2022-11-04T06:50:49;10.40;99.90
2621;DHT22;1320;48.128;11.592;2022-11-04T06:53:15;10.40;99.90
2621;DHT22;1320;48.128;11.592;2022-11-04T06:55:41;10.30;99.90
2621;DHT22;1320;48.128;11.592;2022-11-04T06:58:07;10.30;99.90
2621;DHT22;1320;48.128;11.592;2022-11-04T07:00:36;10.30;99.90
2621;DHT22;1320;48.128;11.592;2022-11-04T07:03:01;10.30;99.90
2621;DHT22;1320;48.128;11.592;2022-11-04T07:05:27;10.30;99.90
2621;DHT22;1320;48.128;11.592;2022-11-04T07:07:55;10.30;99.90
2621;DHT22;1320;48.128;11.592;2022-11-04T07:10:21;10.30;99.90
2621;DHT22;1320;48.128;11.592;2022-11-04T07:12:46;10.40;99.90
2621;DHT22;1320;48.128;11.592;2022-11-04T07:15:12;10.40;99.90
2621;DHT22;1320;48.128;11.592;2022-11-04T07:17:37;10.40;99.90
2621;DHT22;1320;48.128;11.592;2022-11-04T07:20:03;10.40;99.90
2621;DHT22;1320;48.128;11.592;2022-11-04T07:22:32;10.50;99.90
2621;DHT22;1320;48.128;11.592;2022-11-04T07:24:58;10.40;99.90
2621;DHT22;1320;48.128;11.592;2022-11-04T07:27:23;10.50;99.90
2621;DHT22;1320;48.128;11.592;2022-11-04T07:29:49;10.60;99.90
2621;DHT22;1320;48.128;11.592;2022-11-04T07:32:15;10.60;99.90
2621;DHT22;1320;48.128;11.592;2022-11-04T07:34:40;10.60;99.90
2621;DHT22;1320;48.128;11.592;2022-11-04T07:37:06;10.60;99.90
2621;DHT22;1320;48.128;11.592;2022-11-04T07:39:32;10.60;99.90
2621;DHT22;1320;48.128;11.592;2022-11-04T07:41:58;10.50;99.90
2621;DHT22;1320;48.128;11.592;2022-11-04T07:44:23;10.50;99.90
2621;DHT22;1320;48.128;11.592;2022-11-04T07:46:49;10.50;99.90
2621;DHT22;1320;48.128;11.592;2022-11-04T07:49:15;10.50;99.90
2621;DHT22;1320;48.128;11.592;2022-11-04T07:51:41;10.50;99.90
2621;DHT22;1320;48.128;11.592;2022-11-04T07:54:06;10.50;99.90
2621;DHT22;1320;48.128;11.592;2022-11-04T07:56:32;10.50;99.90
2621;DHT22;1320;48.128;11.592;2022-11-04T07:58:58;10.50;99.90
2621;DHT22;1320;48.128;11.592;2022-11-04T08:01:24;10.40;99.90
2621;DHT22;1320;48.128;11.592;2022-11-04T08:03:50;10.40;99.90
2621;DHT22;1320;48.128;11.592;2022-11-04T08:06:17;10.40;99.90
2621;DHT22;1320;48.128;11.592;2022-11-04T08:08:43;10.40;99.90
2621;DHT22;1320;48.128;11.592;2022-11-04T08:11:17;10.50;99.90
2621;DHT22;1320;48.128;11.592;2022-11-04T08:13:44;10.50;99.90
2621;DHT22;1320;48.128;11.592;2022-11-04T08:16:13;10.50;99.90
2621;DHT22;1320;48.128;11.592;2022-11-04T08:18:40;10.50;99.90
2621;DHT22;1320;48.128;11.592;2022-11-04T08:21:06;10.50;99.90
2621;DHT22;1320;48.128;11.592;2022-11-04T08:23:32;10.50;99.90
2621;DHT22;1320;48.128;11.592;2022-11-04T08:25:59;10.50;99.90
2621;DHT22;1320;48.128;11.592;2022-11-04T08:28:25;10.40;99.90
2621;DHT22;1320;48.128;11.592;2022-11-04T08:33:17;10.30;99.90
2621;DHT22;1320;48.128;11.592;2022-11-04T08:35:42;10.30;99.90
2621;DHT22;1320;48.128;11.592;2022-11-04T08:38:08;10.30;99.90
2621;DHT22;1320;48.128;11.592;2022-11-04T08:40:35;10.30;99.90
2621;DHT22;1320;48.128;11.592;2022-11-04T08:43:01;10.30;99.90
2621;DHT22;1320;48.128;11.592;2022-11-04T08:45:27;10.40;99.90
2621;DHT22;1320;48.128;11.592;2022-11-04T08:47:52;10.40;99.90
2621;DHT22;1320;48.128;11.592;2022-11-04T08:52:47;10.40;99.90
2621;DHT22;1320;48.128;11.592;2022-11-04T08:55:13;10.40;99.90
2621;DHT22;1320;48.128;11.592;2022-11-04T08:57:38;10.40;99.90
2621;DHT22;1320;48.128;11.592;2022-11-04T09:00:04;10.40;99.90
2621;DHT22;1320;48.128;11.592;2022-11-04T09:02:30;10.50;99.90
2621;DHT22;1320;48.128;11.592;2022-11-04T09:04:56;10.50;99.90
2621;DHT22;1320;48.128;11.592;2022-11-04T09:07:22;10.50;99.90
2621;DHT22;1320;48.128;11.592;2022-11-04T09:09:47;10.50;99.90
2621;DHT22;1320;48.128;11.592;2022-11-04T09:12:13;10.50;99.90
2621;DHT22;1320;48.128;11.592;2022-11-04T09:14:39;10.50;99.90
2621;DHT22;1320;48.128;11.592;2022-11-04T09:17:04;10.50;99.90
2621;DHT22;1320;48.128;11.592;2022-11-04T09:19:30;10.50;99.90
2621;DHT22;1320;48.128;11.592;2022-11-04T09:21:57;10.50;99.90
2621;DHT22;1320;48.128;11.592;2022-11-04T09:24:22;10.40;99.90
2621;DHT22;1320;48.128;11.592;2022-11-04T09:26:48;10.40;99.90
2621;DHT22;1320;48.128;11.592;2022-11-04T09:29:13;10.40;99.90
2621;DHT22;1320;48.128;11.592;2022-11-04T09:31:39;10.40;99.90
2621;DHT22;1320;48.128;11.592;2022-11-04T09:34:06;10.40;99.90
2621;DHT22;1320;48.128;11.592;2022-11-04T09:36:32;10.40;99.90
2621;DHT22;1320;48.128;11.592;2022-11-04T09:38:58;10.40;99.90
2621;DHT22;1320;48.128;11.592;2022-11-04T09:44:24;10.30;99.90
2621;DHT22;1320;48.128;11.592;2022-11-04T09:46:53;10.30;99.90
2621;DHT22;1320;48.128;11.592;2022-11-04T09:49:21;10.30;99.90
2621;DHT22;1320;48.128;11.592;2022-11-04T09:51:48;10.30;99.90
2621;DHT22;1320;48.128;11.592;2022-11-04T09:54:28;10.30;99.90
2621;DHT22;1320;48.128;11.592;2022-11-04T09:56:58;10.30;99.90
2621;DHT22;1320;48.128;11.592;2022-11-04T09:59:33;10.30;99.90
2621;DHT22;1320;48.128;11.592;2022-11-04T10:02:04;10.30;99.90
2621;DHT22;1320;48.128;11.592;2022-11-04T10:18:45;10.20;99.90
2621;DHT22;1320;48.128;11.592;2022-11-04T10:24:05;10.30;99.90
2621;DHT22;1320;48.128;11.592;2022-11-04T10:29:05;10.30;99.90
2621;DHT22;1320;48.128;11.592;2022-11-04T10:31:36;10.30;99.90
2621;DHT22;1320;48.128;11.592;2022-11-04T10:34:06;10.30;99.90
2621;DHT22;1320;48.128;11.592;2022-11-04T10:36:34;10.40;99.90
2621;DHT22;1320;48.128;11.592;2022-11-04T10:39:08;10.40;99.90
2621;DHT22;1320;48.128;11.592;2022-11-04T10:41:38;10.40;99.90
2621;DHT22;1320;48.128;11.592;2022-11-04T10:44:13;10.50;99.90
2621;DHT22;1320;48.128;11.592;2022-11-04T10:52:44;10.60;99.90
2621;DHT22;1320;48.128;11.592;2022-11-04T10:55:34;10.60;99.90
2621;DHT22;1320;48.128;11.592;2022-11-04T10:58:01;10.70;99.90
2621;DHT22;1320;48.128;11.592;2022-11-04T11:00:39;10.70;99.90
2621;DHT22;1320;48.128;11.592;2022-11-04T11:05:47;10.80;99.90
2621;DHT22;1320;48.128;11.592;2022-11-04T11:08:27;10.90;99.90
2621;DHT22;1320;48.128;11.592;2022-11-04T11:10:53;10.90;99.90
2621;DHT22;1320;48.128;11.592;2022-11-04T11:13:26;10.90;99.90
2621;DHT22;1320;48.128;11.592;2022-11-04T11:18:30;11.00;99.90
2621;DHT22;1320;48.128;11.592;2022-11-04T11:21:15;11.10;99.90
2621;DHT22;1320;48.128;11.592;2022-11-04T11:23:48;11.10;99.90
2621;DHT22;1320;48.128;11.592;2022-11-04T11:26:20;11.10;99.90
2621;DHT22;1320;48.128;11.592;2022-11-04T11:28:54;11.10;99.90
2621;DHT22;1320;48.128;11.592;2022-11-04T11:31:23;11.10;99.90
2621;DHT22;1320;48.128;11.592;2022-11-04T11:33:59;11.10;99.90
2621;DHT22;1320;48.128;11.592;2022-11-04T11:36:30;11.00;99.90
2621;DHT22;1320;48.128;11.592;2022-11-04T11:39:13;11.00;99.90
2621;DHT22;1320;48.128;11.592;2022-11-04T11:42:10;11.00;99.90
2621;DHT22;1320;48.128;11.592;2022-11-04T11:44:41;10.90;99.90
2621;DHT22;1320;48.128;11.592;2022-11-04T11:52:37;10.90;99.90
2621;DHT22;1320;48.128;11.592;2022-11-04T11:55:17;10.90;99.90
2621;DHT22;1320;48.128;11.592;2022-11-04T12:00:45;10.80;99.90
2621;DHT22;1320;48.128;11.592;2022-11-04T12:03:16;10.80;99.90
2621;DHT22;1320;48.128;11.592;2022-11-04T12:11:09;10.80;99.90
2621;DHT22;1320;48.128;11.592;2022-11-04T12:13:49;10.70;99.90
2621;DHT22;1320;48.128;11.592;2022-11-04T12:16:27;10.70;99.90
2621;DHT22;1320;48.128;11.592;2022-11-04T12:21:32;10.70;99.90
2621;DHT22;1320;48.128;11.592;2022-11-04T12:24:43;10.70;99.90
2621;DHT22;1320;48.128;11.592;2022-11-04T12:30:15;10.70;99.90
2621;DHT22;1320;48.128;11.592;2022-11-04T12:46:35;10.70;99.90
2621;DHT22;1320;48.128;11.592;2022-11-04T12:49:24;10.70;99.90
2621;DHT22;1320;48.128;11.592;2022-11-04T12:52:09;10.60;99.90
2621;DHT22;1320;48.128;11.592;2022-11-04T12:57:54;10.70;99.90
2621;DHT22;1320;48.128;11.592;2022-11-04T13:00:23;10.60;99.90
2621;DHT22;1320;48.128;11.592;2022-11-04T13:02:56;10.60;99.90
2621;DHT22;1320;48.128;11.592;2022-11-04T13:05:43;10.60;99.90
2621;DHT22;1320;48.128;11.592;2022-11-04T13:08:41;10.50;99.90
2621;DHT22;1320;48.128;11.592;2022-11-04T13:11:22;10.40;99.90
2621;DHT22;1320;48.128;11.592;2022-11-04T13:14:21;10.40;99.90
2621;DHT22;1320;48.128;11.592;2022-11-04T13:16:57;10.30;99.90
2621;DHT22;1320;48.128;11.592;2022-11-04T13:19:42;10.10;99.90
2621;DHT22;1320;48.128;11.592;2022-11-04T13:22:19;10.00;99.90
2621;DHT22;1320;48.128;11.592;2022-11-04T13:24:56;9.90;99.90
2621;DHT22;1320;48.128;11.592;2022-11-04T13:27:31;9.90;99.90
2621;DHT22;1320;48.128;11.592;2022-11-04T13:32:59;9.80;99.90
2621;DHT22;1320;48.128;11.592;2022-11-04T13:38:13;9.70;99.90
2621;DHT22;1320;48.128;11.592;2022-11-04T13:46:02;9.70;99.90
2621;DHT22;1320;48.128;11.592;2022-11-04T13:48:30;9.70;99.90
2621;DHT22;1320;48.128;11.592;2022-11-04T13:51:07;9.70;99.90
2621;DHT22;1320;48.128;11.592;2022-11-04T13:53:45;9.70;99.90
2621;DHT22;1320;48.128;11.592;2022-11-04T13:56:32;9.70;99.90
2621;DHT22;1320;48.128;11.592;2022-11-04T13:59:03;9.70;99.90
2621;DHT22;1320;48.128;11.592;2022-11-04T14:01:32;9.80;99.90
2621;DHT22;1320;48.128;11.592;2022-11-04T14:04:28;9.80;99.90
2621;DHT22;1320;48.128;11.592;2022-11-04T14:07:00;9.80;99.90
2621;DHT22;1320;48.128;11.592;2022-11-04T14:12:30;9.80;99.90
2621;DHT22;1320;48.128;11.592;2022-11-04T14:15:08;9.80;99.90
2621;DHT22;1320;48.128;11.592;2022-11-04T14:20:23;9.90;99.90
2621;DHT22;1320;48.128;11.592;2022-11-04T14:22:51;9.90;99.90
2621;DHT22;1320;48.128;11.592;2022-11-04T14:25:29;10.00;99.90
2621;DHT22;1320;48.128;11.592;2022-11-04T14:28:01;10.00;99.90
2621;DHT22;1320;48.128;11.592;2022-11-04T14:30:31;10.00;99.90
2621;DHT22;1320;48.128;11.592;2022-11-04T14:33:04;10.00;99.90
2621;DHT22;1320;48.128;11.592;2022-11-04T14:35:30;10.10;99.90
2621;DHT22;1320;48.128;11.592;2022-11-04T14:38:04;10.10;99.90
2621;DHT22;1320;48.128;11.592;2022-11-04T14:40:51;10.10;99.90
2621;DHT22;1320;48.128;11.592;2022-11-04T14:43:39;10.10;99.90
2621;DHT22;1320;48.128;11.592;2022-11-04T14:46:06;10.10;99.90
2621;DHT22;1320;48.128;11.592;2022-11-04T14:48:32;10.10;99.90
2621;DHT22;1320;48.128;11.592;2022-11-04T14:50:58;10.10;99.90
2621;DHT22;1320;48.128;11.592;2022-11-04T14:53:36;10.10;99.90
2621;DHT22;1320;48.128;11.592;2022-11-04T14:58:32;10.10;99.90
2621;DHT22;1320;48.128;11.592;2022-11-04T15:01:00;10.10;99.90
2621;DHT22;1320;48.128;11.592;2022-11-04T15:03:35;10.00;99.90
2621;DHT22;1320;48.128;11.592;2022-11-04T15:06:06;10.00;99.90
2621;DHT22;1320;48.128;11.592;2022-11-04T15:13:37;10.00;99.90
2621;DHT22;1320;48.128;11.592;2022-11-04T15:16:08;10.10;99.90
2621;DHT22;1320;48.128;11.592;2022-11-04T15:18:36;10.10;99.90
2621;DHT22;1320;48.128;11.592;2022-11-04T15:21:05;10.10;99.90
2621;DHT22;1320;48.128;11.592;2022-11-04T15:23:41;10.00;99.90
2621;DHT22;1320;48.128;11.592;2022-11-04T15:26:34;10.00;99.90
2621;DHT22;1320;48.128;11.592;2022-11-04T15:29:06;10.00;99.90
2621;DHT22;1320;48.128;11.592;2022-11-04T15:31:33;9.90;99.90
2621;DHT22;1320;48.128;11.592;2022-11-04T15:34:01;9.90;99.90
2621;DHT22;1320;48.128;11.592;2022-11-04T15:36:32;9.80;99.90
2621;DHT22;1320;48.128;11.592;2022-11-04T15:39:05;9.80;99.90
2621;DHT22;1320;48.128;11.592;2022-11-04T15:41:33;9.80;99.90
2621;DHT22;1320;48.128;11.592;2022-11-04T15:44:30;9.80;99.90
2621;DHT22;1320;48.128;11.592;2022-11-04T15:46:59;9.70;99.90
2621;DHT22;1320;48.128;11.592;2022-11-04T15:49:29;9.60;99.90
2621;DHT22;1320;48.128;11.592;2022-11-04T15:52:06;9.60;99.90
2621;DHT22;1320;48.128;11.592;2022-11-04T15:54:35;9.60;99.90
2621;DHT22;1320;48.128;11.592;2022-11-04T15:57:23;9.60;99.90
2621;DHT22;1320;48.128;11.592;2022-11-04T16:07:43;9.60;99.90
2621;DHT22;1320;48.128;11.592;2022-11-04T16:10:27;9.60;99.90
2621;DHT22;1320;48.128;11.592;2022-11-04T16:18:18;9.50;99.90
2621;DHT22;1320;48.128;11.592;2022-11-04T16:20:46;9.50;99.90
2621;DHT22;1320;48.128;11.592;2022-11-04T16:23:16;9.50;99.90
2621;DHT22;1320;48.128;11.592;2022-11-04T16:25:43;9.40;99.90
2621;DHT22;1320;48.128;11.592;2022-11-04T16:28:19;9.40;99.90
2621;DHT22;1320;48.128;11.592;2022-11-04T16:30:58;9.30;99.90
2621;DHT22;1320;48.128;11.592;2022-11-04T16:33:24;9.30;99.90
2621;DHT22;1320;48.128;11.592;2022-11-04T16:35:50;9.30;99.90
2621;DHT22;1320;48.128;11.592;2022-11-04T16:38:15;9.30;99.90
2621;DHT22;1320;48.128;11.592;2022-11-04T16:40:43;9.30;99.90
2621;DHT22;1320;48.128;11.592;2022-11-04T16:43:10;9.30;99.90
2621;DHT22;1320;48.128;11.592;2022-11-04T16:45:36;9.30;99.90
2621;DHT22;1320;48.128;11.592;2022-11-04T16:48:03;9.30;99.90
2621;DHT22;1320;48.128;11.592;2022-11-04T16:50:30;9.20;99.90
2621;DHT22;1320;48.128;11.592;2022-11-04T16:52:57;9.20;99.90
2621;DHT22;1320;48.128;11.592;2022-11-04T16:55:24;9.10;99.90
2621;DHT22;1320;48.128;11.592;2022-11-04T16:57:57;9.00;99.90
2621;DHT22;1320;48.128;11.592;2022-11-04T17:00:25;9.00;99.90
2621;DHT22;1320;48.128;11.592;2022-11-04T17:02:51;8.90;99.90
2621;DHT22;1320;48.128;11.592;2022-11-04T17:05:18;8.90;99.90
2621;DHT22;1320;48.128;11.592;2022-11-04T17:07:45;8.80;99.90
2621;DHT22;1320;48.128;11.592;2022-11-04T17:10:25;8.80;99.90
2621;DHT22;1320;48.128;11.592;2022-11-04T17:12:51;8.80;99.90
2621;DHT22;1320;48.128;11.592;2022-11-04T17:15:16;8.70;99.90
2621;DHT22;1320;48.128;11.592;2022-11-04T17:17:43;8.70;99.90
2621;DHT22;1320;48.128;11.592;2022-11-04T17:20:13;8.70;99.90
2621;DHT22;1320;48.128;11.592;2022-11-04T17:22:40;8.70;99.90
2621;DHT22;1320;48.128;11.592;2022-11-04T17:25:24;8.70;99.90
2621;DHT22;1320;48.128;11.592;2022-11-04T17:27:50;8.70;99.90
2621;DHT22;1320;48.128;11.592;2022-11-04T17:30:16;8.80;99.90
2621;DHT22;1320;48.128;11.592;2022-11-04T17:32:43;8.80;99.90
2621;DHT22;1320;48.128;11.592;2022-11-04T17:35:10;8.80;99.90
2621;DHT22;1320;48.128;11.592;2022-11-04T17:37:37;8.80;99.90
2621;DHT22;1320;48.128;11.592;2022-11-04T17:40:04;8.80;99.90
2621;DHT22;1320;48.128;11.592;2022-11-04T17:42:29;8.80;99.90
2621;DHT22;1320;48.128;11.592;2022-11-04T17:45:14;8.80;99.90
2621;DHT22;1320;48.128;11.592;2022-11-04T17:47:40;8.80;99.90
2621;DHT22;1320;48.128;11.592;2022-11-04T17:50:06;8.80;99.90
2621;DHT22;1320;48.128;11.592;2022-11-04T17:52:34;8.80;99.90
2621;DHT22;1320;48.128;11.592;2022-11-04T17:54:59;8.80;99.90
2621;DHT22;1320;48.128;11.592;2022-11-04T17:57:25;8.80;99.90
2621;DHT22;1320;48.128;11.592;2022-11-04T17:59:51;8.70;99.90
2621;DHT22;1320;48.128;11.592;2022-11-04T18:02:16;8.70;99.90
2621;DHT22;1320;48.128;11.592;2022-11-04T18:04:44;8.70;99.90
2621;DHT22;1320;48.128;11.592;2022-11-04T18:07:10;8.70;99.90
2621;DHT22;1320;48.128;11.592;2022-11-04T18:09:36;8.70;99.90
2621;DHT22;1320;48.128;11.592;2022-11-04T18:12:04;8.60;99.90
2621;DHT22;1320;48.128;11.592;2022-11-04T18:14:48;8.60;99.90
2621;DHT22;1320;48.128;11.592;2022-11-04T18:17:14;8.60;99.90
2621;DHT22;1320;48.128;11.592;2022-11-04T18:19:40;8.60;99.90
2621;DHT22;1320;48.128;11.592;2022-11-04T18:22:05;8.60;99.90
2621;DHT22;1320;48.128;11.592;2022-11-04T18:24:31;8.60;99.90
2621;DHT22;1320;48.128;11.592;2022-11-04T18:26:58;8.60;99.90
2621;DHT22;1320;48.128;11.592;2022-11-04T18:29:25;8.60;99.90
2621;DHT22;1320;48.128;11.592;2022-11-04T18:31:51;8.60;99.90
2621;DHT22;1320;48.128;11.592;2022-11-04T18:34:17;8.70;99.90
2621;DHT22;1320;48.128;11.592;2022-11-04T18:36:44;8.70;99.90
2621;DHT22;1320;48.128;11.592;2022-11-04T18:39:12;8.70;99.90
2621;DHT22;1320;48.128;11.592;2022-11-04T18:41:39;8.70;99.90
2621;DHT22;1320;48.128;11.592;2022-11-04T18:44:06;8.70;99.90
2621;DHT22;1320;48.128;11.592;2022-11-04T18:46:32;8.70;99.90
2621;DHT22;1320;48.128;11.592;2022-11-04T18:48:58;8.70;99.90
2621;DHT22;1320;48.128;11.592;2022-11-04T18:51:24;8.80;99.90
2621;DHT22;1320;48.128;11.592;2022-11-04T18:53:51;8.80;99.90
2621;DHT22;1320;48.128;11.592;2022-11-04T18:56:19;8.80;99.90
2621;DHT22;1320;48.128;11.592;2022-11-04T18:58:45;8.80;99.90